sensor_id;sensor_type;location;lat;lon;timestamp;pressure;altitude;pressure_sealevel;temperature;humidity
31538;BME280;18147;51.952;6.146;2022-11-15T00:01:49;100815.03;;;6.89;100.00
31538;BME280;18147;51.952;6.146;2022-11-15T00:04:34;100817.69;;;6.89;100.00
31538;BME280;18147;51.952;6.146;2022-11-15T00:07:17;100819.28;;;6.93;100.00
31538;BME280;18147;51.952;6.146;2022-11-15T00:10:02;100806.06;;;6.91;100.00
31538;BME280;18147;51.952;6.146;2022-11-15T00:12:47;100808.66;;;6.93;100.00
31538;BME280;18147;51.952;6.146;2022-11-15T00:15:31;100799.31;;;7.03;100.00
31538;BME280;18147;51.952;6.146;2022-11-15T00:18:15;100803.06;;;6.99;100.00
31538;BME280;18147;51.952;6.146;2022-11-15T00:21:04;100795.09;;;6.99;100.00
31538;BME280;18147;51.952;6.146;2022-11-15T00:23:50;100801.03;;;7.04;100.00
31538;BME280;18147;51.952;6.146;2022-11-15T00:26:34;100792.13;;;7.05;100.00
31538;BME280;18147;51.952;6.146;2022-11-15T00:29:18;100792.00;;;7.08;100.00
31538;BME280;18147;51.952;6.146;2022-11-15T00:32:02;100783.03;;;7.11;100.00
31538;BME280;18147;51.952;6.146;2022-11-15T00:34:46;100778.66;;;7.10;100.00
31538;BME280;18147;51.952;6.146;2022-11-15T00:37:29;100782.66;;;7.18;100.00
31538;BME280;18147;51.952;6.146;2022-11-15T00:40:14;100764.94;;;7.19;100.00
31538;BME280;18147;51.952;6.146;2022-11-15T00:42:59;100776.94;;;7.26;100.00
31538;BME280;18147;51.952;6.146;2022-11-15T00:45:43;100776.72;;;7.31;100.00
31538;BME280;18147;51.952;6.146;2022-11-15T00:48:27;100778.41;;;7.32;100.00
31538;BME280;18147;51.952;6.146;2022-11-15T00:51:11;100781.03;;;7.33;100.00
31538;BME280;18147;51.952;6.146;2022-11-15T00:53:55;100779.84;;;7.39;100.00
31538;BME280;18147;51.952;6.146;2022-11-15T00:56:39;100771.94;;;7.37;100.00
31538;BME280;18147;51.952;6.146;2022-11-15T00:59:23;100773.59;;;7.40;100.00
31538;BME280;18147;51.952;6.146;2022-11-15T01:02:07;100768.44;;;7.37;100.00
31538;BME280;18147;51.952;6.146;2022-11-15T01:04:51;100765.09;;;7.33;100.00
31538;BME280;18147;51.952;6.146;2022-11-15T01:07:35;100764.94;;;7.36;100.00
31538;BME280;18147;51.952;6.146;2022-11-15T01:10:20;100758.69;;;7.37;100.00
31538;BME280;18147;51.952;6.146;2022-11-15T01:13:04;100753.13;;;7.42;100.00
31538;BME280;18147;51.952;6.146;2022-11-15T01:15:48;100746.84;;;7.44;100.00
31538;BME280;18147;51.952;6.146;2022-11-15T01:18:32;100748.53;;;7.45;100.00
31538;BME280;18147;51.952;6.146;2022-11-15T01:21:18;100747.69;;;7.45;100.00
31538;BME280;18147;51.952;6.146;2022-11-15T01:24:02;100751.81;;;7.50;100.00
31538;BME280;18147;51.952;6.146;2022-11-15T01:26:46;100750.53;;;7.58;100.00
31538;BME280;18147;51.952;6.146;2022-11-15T01:29:30;100736.97;;;7.64;100.00
31538;BME280;18147;51.952;6.146;2022-11-15T01:32:14;100739.44;;;7.67;100.00
31538;BME280;18147;51.952;6.146;2022-11-15T01:35:00;100733.03;;;7.71;100.00
31538;BME280;18147;51.952;6.146;2022-11-15T01:37:45;100732.28;;;7.69;100.00
31538;BME280;18147;51.952;6.146;2022-11-15T01:40:29;100728.50;;;7.73;100.00
31538;BME280;18147;51.952;6.146;2022-11-15T01:43:24;100723.13;;;7.74;100.00
31538;BME280;18147;51.952;6.146;2022-11-15T01:46:22;100722.88;;;7.79;100.00
31538;BME280;18147;51.952;6.146;2022-11-15T01:49:16;100726.81;;;7.88;100.00
31538;BME280;18147;51.952;6.146;2022-11-15T01:52:02;100715.09;;;7.92;100.00
31538;BME280;18147;51.952;6.146;2022-11-15T01:54:49;100716.13;;;7.89;100.00
31538;BME280;18147;51.952;6.146;2022-11-15T01:57:34;100712.38;;;7.93;100.00
31538;BME280;18147;51.952;6.146;2022-11-15T02:00:19;100705.88;;;7.99;100.00
31538;BME280;18147;51.952;6.146;2022-11-15T02:03:03;100715.56;;;8.00;100.00
31538;BME280;18147;51.952;6.146;2022-11-15T02:05:48;100712.81;;;8.01;100.00
31538;BME280;18147;51.952;6.146;2022-11-15T02:08:32;100713.59;;;8.03;100.00
31538;BME280;18147;51.952;6.146;2022-11-15T02:11:16;100704.44;;;8.09;100.00
31538;BME280;18147;51.952;6.146;2022-11-15T02:14:01;100710.84;;;8.05;100.00
31538;BME280;18147;51.952;6.146;2022-11-15T02:22:37;100704.09;;;8.15;100.00
31538;BME280;18147;51.952;6.146;2022-11-15T02:25:56;100698.69;;;8.17;100.00
31538;BME280;18147;51.952;6.146;2022-11-15T02:28:58;100693.31;;;8.18;100.00
31538;BME280;18147;51.952;6.146;2022-11-15T02:32:07;100699.63;;;8.16;100.00
31538;BME280;18147;51.952;6.146;2022-11-15T02:38:03;100694.31;;;8.31;100.00
31538;BME280;18147;51.952;6.146;2022-11-15T02:41:03;100684.53;;;8.32;100.00
31538;BME280;18147;51.952;6.146;2022-11-15T02:46:50;100678.13;;;8.36;100.00
31538;BME280;18147;51.952;6.146;2022-11-15T02:49:57;100680.63;;;8.39;100.00
31538;BME280;18147;51.952;6.146;2022-11-15T02:52:45;100681.28;;;8.43;100.00
31538;BME280;18147;51.952;6.146;2022-11-15T02:55:32;100679.34;;;8.46;100.00
31538;BME280;18147;51.952;6.146;2022-11-15T03:07:42;100663.63;;;8.57;100.00
31538;BME280;18147;51.952;6.146;2022-11-15T03:13:29;100658.63;;;8.67;100.00
31538;BME280;18147;51.952;6.146;2022-11-15T03:16:40;100651.50;;;8.68;100.00
31538;BME280;18147;51.952;6.146;2022-11-15T03:22:44;100647.09;;;8.82;100.00
31538;BME280;18147;51.952;6.146;2022-11-15T03:25:30;100639.97;;;8.83;100.00
31538;BME280;18147;51.952;6.146;2022-11-15T03:28:23;100643.41;;;8.85;100.00
31538;BME280;18147;51.952;6.146;2022-11-15T03:31:12;100649.31;;;8.90;100.00
31538;BME280;18147;51.952;6.146;2022-11-15T03:34:53;100645.09;;;8.86;100.00
31538;BME280;18147;51.952;6.146;2022-11-15T03:37:58;100642.28;;;8.89;100.00
31538;BME280;18147;51.952;6.146;2022-11-15T03:41:23;100642.28;;;8.89;100.00
31538;BME280;18147;51.952;6.146;2022-11-15T03:47:02;100647.31;;;8.94;100.00
31538;BME280;18147;51.952;6.146;2022-11-15T03:49:58;100652.72;;;8.92;100.00
31538;BME280;18147;51.952;6.146;2022-11-15T03:52:46;100650.00;;;8.94;100.00
31538;BME280;18147;51.952;6.146;2022-11-15T03:55:31;100648.56;;;9.02;100.00
31538;BME280;18147;51.952;6.146;2022-11-15T03:58:16;100654.66;;;9.04;100.00
31538;BME280;18147;51.952;6.146;2022-11-15T04:00:59;100656.63;;;9.01;100.00
31538;BME280;18147;51.952;6.146;2022-11-15T04:03:44;100658.75;;;9.10;100.00
31538;BME280;18147;51.952;6.146;2022-11-15T04:06:28;100656.00;;;9.12;100.00
31538;BME280;18147;51.952;6.146;2022-11-15T04:09:12;100651.34;;;9.15;100.00
31538;BME280;18147;51.952;6.146;2022-11-15T04:11:56;100664.66;;;9.15;100.00
31538;BME280;18147;51.952;6.146;2022-11-15T04:14:41;100662.16;;;9.12;100.00
31538;BME280;18147;51.952;6.146;2022-11-15T04:17:50;100664.16;;;9.23;100.00
31538;BME280;18147;51.952;6.146;2022-11-15T04:20:34;100655.53;;;9.19;100.00
31538;BME280;18147;51.952;6.146;2022-11-15T04:23:37;100653.06;;;9.16;100.00
31538;BME280;18147;51.952;6.146;2022-11-15T04:26:40;100664.84;;;9.26;100.00
31538;BME280;18147;51.952;6.146;2022-11-15T04:29:24;100659.06;;;9.20;100.00
31538;BME280;18147;51.952;6.146;2022-11-15T04:32:20;100658.84;;;9.23;100.00
31538;BME280;18147;51.952;6.146;2022-11-15T04:35:04;100656.59;;;9.31;100.00
31538;BME280;18147;51.952;6.146;2022-11-15T04:37:49;100651.25;;;9.31;100.00
31538;BME280;18147;51.952;6.146;2022-11-15T04:40:33;100646.53;;;9.36;100.00
31538;BME280;18147;51.952;6.146;2022-11-15T04:43:17;100651.84;;;9.36;100.00
31538;BME280;18147;51.952;6.146;2022-11-15T04:46:01;100652.31;;;9.43;100.00
31538;BME280;18147;51.952;6.146;2022-11-15T04:48:45;100652.31;;;9.43;100.00
31538;BME280;18147;51.952;6.146;2022-11-15T04:51:29;100652.59;;;9.38;100.00
31538;BME280;18147;51.952;6.146;2022-11-15T04:54:13;100652.50;;;9.40;100.00
31538;BME280;18147;51.952;6.146;2022-11-15T04:56:57;100646.41;;;9.52;100.00
31538;BME280;18147;51.952;6.146;2022-11-15T04:59:42;100650.03;;;9.51;100.00
31538;BME280;18147;51.952;6.146;2022-11-15T05:02:26;100647.28;;;9.52;100.00
31538;BME280;18147;51.952;6.146;2022-11-15T05:05:30;100651.28;;;9.59;100.00
31538;BME280;18147;51.952;6.146;2022-11-15T05:08:14;100647.78;;;9.59;100.00
31538;BME280;18147;51.952;6.146;2022-11-15T05:10:58;100649.47;;;9.60;100.00
31538;BME280;18147;51.952;6.146;2022-11-15T05:13:42;100646.53;;;9.65;100.00
31538;BME280;18147;51.952;6.146;2022-11-15T05:16:26;100636.53;;;9.68;100.00
31538;BME280;18147;51.952;6.146;2022-11-15T05:19:10;100637.38;;;9.69;100.00
31538;BME280;18147;51.952;6.146;2022-11-15T05:21:53;100637.94;;;9.74;100.00
31538;BME280;18147;51.952;6.146;2022-11-15T05:24:37;100640.53;;;9.75;100.00
31538;BME280;18147;51.952;6.146;2022-11-15T05:27:21;100640.78;;;9.85;100.00
31538;BME280;18147;51.952;6.146;2022-11-15T05:30:06;100642.03;;;9.79;100.00
31538;BME280;18147;51.952;6.146;2022-11-15T05:32:50;100635.53;;;9.83;100.00
31538;BME280;18147;51.952;6.146;2022-11-15T05:35:41;100635.25;;;9.88;100.00
31538;BME280;18147;51.952;6.146;2022-11-15T05:38:26;100632.53;;;9.75;100.00
31538;BME280;18147;51.952;6.146;2022-11-15T05:41:10;100632.31;;;9.78;100.00
31538;BME280;18147;51.952;6.146;2022-11-15T05:43:55;100637.56;;;9.80;100.00
31538;BME280;18147;51.952;6.146;2022-11-15T05:46:40;100636.16;;;9.74;100.00
31538;BME280;18147;51.952;6.146;2022-11-15T05:49:28;100645.84;;;9.75;100.00
31538;BME280;18147;51.952;6.146;2022-11-15T05:52:16;100643.38;;;9.72;100.00
31538;BME280;18147;51.952;6.146;2022-11-15T05:55:01;100644.59;;;9.67;100.00
31538;BME280;18147;51.952;6.146;2022-11-15T05:57:46;100634.63;;;9.70;100.00
31538;BME280;18147;51.952;6.146;2022-11-15T06:00:30;100638.91;;;9.73;100.00
31538;BME280;18147;51.952;6.146;2022-11-15T06:03:14;100647.25;;;9.81;100.00
31538;BME280;18147;51.952;6.146;2022-11-15T06:05:58;100645.91;;;9.74;100.00
31538;BME280;18147;51.952;6.146;2022-11-15T06:08:42;100647.38;;;9.79;100.00
31538;BME280;18147;51.952;6.146;2022-11-15T06:11:26;100647.66;;;9.75;100.00
31538;BME280;18147;51.952;6.146;2022-11-15T06:14:10;100647.16;;;9.82;100.00
31538;BME280;18147;51.952;6.146;2022-11-15T06:16:54;100644.78;;;9.78;100.00
31538;BME280;18147;51.952;6.146;2022-11-15T06:19:38;100640.03;;;9.83;100.00
31538;BME280;18147;51.952;6.146;2022-11-15T06:22:22;100646.41;;;9.80;100.00
31538;BME280;18147;51.952;6.146;2022-11-15T06:25:06;100651.44;;;9.85;100.00
31538;BME280;18147;51.952;6.146;2022-11-15T06:27:52;100648.97;;;9.82;100.00
31538;BME280;18147;51.952;6.146;2022-11-15T06:30:36;100654.97;;;9.85;100.00
31538;BME280;18147;51.952;6.146;2022-11-15T06:33:20;100663.69;;;9.88;100.00
31538;BME280;18147;51.952;6.146;2022-11-15T06:36:07;100657.63;;;9.85;100.00
31538;BME280;18147;51.952;6.146;2022-11-15T06:38:51;100655.72;;;9.88;100.00
31538;BME280;18147;51.952;6.146;2022-11-15T06:41:36;100648.38;;;9.91;100.00
31538;BME280;18147;51.952;6.146;2022-11-15T06:44:19;100652.19;;;9.87;100.00
31538;BME280;18147;51.952;6.146;2022-11-15T06:47:03;100656.09;;;9.96;100.00
31538;BME280;18147;51.952;6.146;2022-11-15T06:49:47;100661.03;;;9.88;100.00
31538;BME280;18147;51.952;6.146;2022-11-15T06:52:32;100669.69;;;9.91;100.00
31538;BME280;18147;51.952;6.146;2022-11-15T06:55:16;100671.28;;;9.94;100.00
31538;BME280;18147;51.952;6.146;2022-11-15T06:58:00;100664.25;;;9.93;100.00
31538;BME280;18147;51.952;6.146;2022-11-15T07:00:44;100673.66;;;9.98;100.00
31538;BME280;18147;51.952;6.146;2022-11-15T07:03:28;100671.28;;;10.08;100.00
31538;BME280;18147;51.952;6.146;2022-11-15T07:06:12;100667.41;;;9.99;100.00
31538;BME280;18147;51.952;6.146;2022-11-15T07:08:56;100660.47;;;9.97;100.00
31538;BME280;18147;51.952;6.146;2022-11-15T07:11:40;100661.72;;;9.91;100.00
31538;BME280;18147;51.952;6.146;2022-11-15T07:14:24;100667.16;;;9.90;100.00
31538;BME280;18147;51.952;6.146;2022-11-15T07:17:08;100673.31;;;9.90;100.00
31538;BME280;18147;51.952;6.146;2022-11-15T07:19:52;100674.06;;;9.92;100.00
31538;BME280;18147;51.952;6.146;2022-11-15T07:22:36;100672.34;;;9.91;100.00
31538;BME280;18147;51.952;6.146;2022-11-15T07:25:20;100677.00;;;10.02;100.00
31538;BME280;18147;51.952;6.146;2022-11-15T07:28:04;100684.25;;;10.00;100.00
31538;BME280;18147;51.952;6.146;2022-11-15T07:30:48;100683.41;;;9.99;100.00
31538;BME280;18147;51.952;6.146;2022-11-15T07:33:32;100689.38;;;10.03;100.00
31538;BME280;18147;51.952;6.146;2022-11-15T07:36:17;100704.88;;;9.96;100.00
31538;BME280;18147;51.952;6.146;2022-11-15T07:39:01;100704.50;;;10.02;100.00
31538;BME280;18147;51.952;6.146;2022-11-15T07:41:44;100698.13;;;10.05;100.00
31538;BME280;18147;51.952;6.146;2022-11-15T07:44:29;100698.88;;;10.07;100.00
31538;BME280;18147;51.952;6.146;2022-11-15T07:47:14;100696.88;;;10.10;100.00
31538;BME280;18147;51.952;6.146;2022-11-15T07:49:57;100703.44;;;10.19;100.00
31538;BME280;18147;51.952;6.146;2022-11-15T07:52:41;100694.00;;;10.13;100.00
31538;BME280;18147;51.952;6.146;2022-11-15T07:55:27;100697.63;;;10.12;100.00
31538;BME280;18147;51.952;6.146;2022-11-15T07:58:12;100699.03;;;10.18;100.00
31538;BME280;18147;51.952;6.146;2022-11-15T08:00:56;100703.22;;;10.22;100.00
31538;BME280;18147;51.952;6.146;2022-11-15T08:03:40;100696.03;;;10.24;100.00
31538;BME280;18147;51.952;6.146;2022-11-15T08:06:24;100697.53;;;10.28;100.00
31538;BME280;18147;51.952;6.146;2022-11-15T08:09:09;100698.50;;;10.27;100.00
31538;BME280;18147;51.952;6.146;2022-11-15T08:11:52;100704.06;;;10.23;100.00
31538;BME280;18147;51.952;6.146;2022-11-15T08:14:37;100699.25;;;10.29;100.00
31538;BME280;18147;51.952;6.146;2022-11-15T08:17:21;100695.63;;;10.30;100.00
31538;BME280;18147;51.952;6.146;2022-11-15T08:20:05;100703.53;;;10.32;100.00
31538;BME280;18147;51.952;6.146;2022-11-15T08:22:50;100695.63;;;10.30;100.00
31538;BME280;18147;51.952;6.146;2022-11-15T08:25:34;100699.34;;;10.28;100.00
31538;BME280;18147;51.952;6.146;2022-11-15T08:28:19;100693.16;;;10.27;100.00
31538;BME280;18147;51.952;6.146;2022-11-15T08:31:03;100696.19;;;10.35;100.00
31538;BME280;18147;51.952;6.146;2022-11-15T08:33:48;100692.28;;;10.41;100.00
31538;BME280;18147;51.952;6.146;2022-11-15T08:36:32;100691.19;;;10.44;100.00
31538;BME280;18147;51.952;6.146;2022-11-15T08:39:16;100688.47;;;10.45;100.00
31538;BME280;18147;51.952;6.146;2022-11-15T08:42:00;100689.19;;;10.47;100.00
31538;BME280;18147;51.952;6.146;2022-11-15T08:44:44;100689.56;;;10.55;100.00
31538;BME280;18147;51.952;6.146;2022-11-15T08:47:28;100686.28;;;10.65;100.00
31538;BME280;18147;51.952;6.146;2022-11-15T08:50:12;100685.34;;;10.78;100.00
31538;BME280;18147;51.952;6.146;2022-11-15T08:52:56;100684.44;;;10.79;100.00
31538;BME280;18147;51.952;6.146;2022-11-15T08:55:40;100681.91;;;11.03;100.00
31538;BME280;18147;51.952;6.146;2022-11-15T08:58:24;100685.63;;;11.01;100.00
31538;BME280;18147;51.952;6.146;2022-11-15T09:01:16;100684.38;;;11.06;100.00
31538;BME280;18147;51.952;6.146;2022-11-15T09:04:00;100692.91;;;11.11;100.00
31538;BME280;18147;51.952;6.146;2022-11-15T09:06:44;100689.19;;;11.27;100.00
31538;BME280;18147;51.952;6.146;2022-11-15T09:09:28;100681.06;;;11.28;100.00
31538;BME280;18147;51.952;6.146;2022-11-15T09:12:12;100687.38;;;11.27;100.00
31538;BME280;18147;51.952;6.146;2022-11-15T09:14:56;100684.91;;;11.24;100.00
31538;BME280;18147;51.952;6.146;2022-11-15T09:17:40;100684.59;;;11.16;100.00
31538;BME280;18147;51.952;6.146;2022-11-15T09:20:24;100690.66;;;11.18;100.00
31538;BME280;18147;51.952;6.146;2022-11-15T09:23:08;100680.09;;;11.17;100.00
31538;BME280;18147;51.952;6.146;2022-11-15T09:25:57;100681.16;;;11.14;100.00
31538;BME280;18147;51.952;6.146;2022-11-15T09:28:41;100687.16;;;11.05;100.00
31538;BME280;18147;51.952;6.146;2022-11-15T09:31:26;100674.34;;;11.10;100.00
31538;BME280;18147;51.952;6.146;2022-11-15T09:34:10;100674.91;;;11.40;100.00
31538;BME280;18147;51.952;6.146;2022-11-15T09:36:55;100670.50;;;11.27;100.00
31538;BME280;18147;51.952;6.146;2022-11-15T09:39:39;100671.78;;;11.34;100.00
31538;BME280;18147;51.952;6.146;2022-11-15T09:45:18;100658.75;;;11.42;100.00
31538;BME280;18147;51.952;6.146;2022-11-15T09:50:54;100654.91;;;11.46;100.00
31538;BME280;18147;51.952;6.146;2022-11-15T09:53:41;100644.69;;;11.40;100.00
31538;BME280;18147;51.952;6.146;2022-11-15T09:56:16;100650.53;;;11.58;100.00
31538;BME280;18147;51.952;6.146;2022-11-15T10:04:01;100639.09;;;11.43;100.00
31538;BME280;18147;51.952;6.146;2022-11-15T10:06:27;100636.44;;;11.56;100.00
31538;BME280;18147;51.952;6.146;2022-11-15T10:11:40;100623.25;;;11.78;100.00
31538;BME280;18147;51.952;6.146;2022-11-15T10:22:38;100621.75;;;11.74;100.00
31538;BME280;18147;51.952;6.146;2022-11-15T10:25:12;100622.19;;;11.81;100.00
31538;BME280;18147;51.952;6.146;2022-11-15T10:27:41;100615.25;;;11.91;100.00
31538;BME280;18147;51.952;6.146;2022-11-15T10:30:13;100606.47;;;11.89;100.00
31538;BME280;18147;51.952;6.146;2022-11-15T10:32:40;100609.59;;;11.83;100.00
31538;BME280;18147;51.952;6.146;2022-11-15T10:35:37;100610.84;;;11.77;100.00
31538;BME280;18147;51.952;6.146;2022-11-15T10:38:06;100611.72;;;11.78;100.00
31538;BME280;18147;51.952;6.146;2022-11-15T10:40:32;100612.34;;;11.81;100.00
31538;BME280;18147;51.952;6.146;2022-11-15T10:43:16;100612.56;;;11.78;100.00
31538;BME280;18147;51.952;6.146;2022-11-15T10:45:42;100610.09;;;12.01;100.00
31538;BME280;18147;51.952;6.146;2022-11-15T10:50:44;100609.56;;;11.96;100.00
31538;BME280;18147;51.952;6.146;2022-11-15T10:53:47;100601.13;;;11.89;100.00
31538;BME280;18147;51.952;6.146;2022-11-15T10:56:14;100593.81;;;12.04;100.00
31538;BME280;18147;51.952;6.146;2022-11-15T10:58:57;100590.75;;;11.97;100.00
31538;BME280;18147;51.952;6.146;2022-11-15T11:01:27;100580.91;;;11.98;100.00
31538;BME280;18147;51.952;6.146;2022-11-15T11:04:12;100574.72;;;11.97;100.00
31538;BME280;18147;51.952;6.146;2022-11-15T11:06:53;100560.19;;;11.88;100.00
31538;BME280;18147;51.952;6.146;2022-11-15T11:09:33;100548.84;;;11.98;100.00
31538;BME280;18147;51.952;6.146;2022-11-15T11:12:02;100552.75;;;12.05;100.00
31538;BME280;18147;51.952;6.146;2022-11-15T11:14:34;100561.97;;;12.01;100.00
31538;BME280;18147;51.952;6.146;2022-11-15T11:20:14;100557.94;;;11.95;100.00
31538;BME280;18147;51.952;6.146;2022-11-15T11:23:05;100559.34;;;11.88;100.00
31538;BME280;18147;51.952;6.146;2022-11-15T11:28:54;100550.72;;;12.08;100.00
31538;BME280;18147;51.952;6.146;2022-11-15T11:31:43;100555.41;;;12.05;100.00
31538;BME280;18147;51.952;6.146;2022-11-15T11:45:00;100550.47;;;12.35;100.00
31538;BME280;18147;51.952;6.146;2022-11-15T11:47:32;100550.06;;;12.29;100.00
31538;BME280;18147;51.952;6.146;2022-11-15T11:50:13;100533.66;;;11.98;100.00
31538;BME280;18147;51.952;6.146;2022-11-15T11:55:41;100547.34;;;11.93;100.00
31538;BME280;18147;51.952;6.146;2022-11-15T11:58:15;100535.59;;;11.96;100.00
31538;BME280;18147;51.952;6.146;2022-11-15T12:00:51;100542.19;;;12.03;100.00
31538;BME280;18147;51.952;6.146;2022-11-15T12:03:44;100545.63;;;12.05;100.00
31538;BME280;18147;51.952;6.146;2022-11-15T12:07:07;100533.16;;;11.93;100.00
31538;BME280;18147;51.952;6.146;2022-11-15T12:15:23;100528.56;;;11.95;100.00
31538;BME280;18147;51.952;6.146;2022-11-15T12:17:50;100512.34;;;11.85;100.00
31538;BME280;18147;51.952;6.146;2022-11-15T12:20:19;100510.06;;;11.92;100.00
31538;BME280;18147;51.952;6.146;2022-11-15T12:25:47;100488.38;;;12.08;100.00
31538;BME280;18147;51.952;6.146;2022-11-15T12:28:24;100487.53;;;12.07;100.00
31538;BME280;18147;51.952;6.146;2022-11-15T12:31:03;100479.34;;;12.22;100.00
31538;BME280;18147;51.952;6.146;2022-11-15T12:33:33;100477.91;;;12.05;99.64
31538;BME280;18147;51.952;6.146;2022-11-15T12:36:03;100468.97;;;12.06;100.00
31538;BME280;18147;51.952;6.146;2022-11-15T12:38:59;100463.84;;;12.03;96.85
31538;BME280;18147;51.952;6.146;2022-11-15T12:41:30;100455.09;;;12.01;92.78
31538;BME280;18147;51.952;6.146;2022-11-15T12:43:56;100462.84;;;12.04;94.33
31538;BME280;18147;51.952;6.146;2022-11-15T12:49:00;100445.41;;;12.11;96.87
31538;BME280;18147;51.952;6.146;2022-11-15T12:59:53;100420.59;;;12.09;94.44
31538;BME280;18147;51.952;6.146;2022-11-15T13:02:44;100414.19;;;12.11;93.12
31538;BME280;18147;51.952;6.146;2022-11-15T13:17:38;100393.16;;;12.07;97.24
31538;BME280;18147;51.952;6.146;2022-11-15T13:22:44;100381.34;;;12.09;95.36
31538;BME280;18147;51.952;6.146;2022-11-15T13:30:40;100377.59;;;12.01;99.11
31538;BME280;18147;51.952;6.146;2022-11-15T13:33:34;100381.22;;;12.00;97.60
31538;BME280;18147;51.952;6.146;2022-11-15T13:36:14;100368.72;;;12.00;96.73
31538;BME280;18147;51.952;6.146;2022-11-15T13:38:41;100370.53;;;12.00;97.17
31538;BME280;18147;51.952;6.146;2022-11-15T13:41:20;100359.59;;;12.03;95.17
31538;BME280;18147;51.952;6.146;2022-11-15T13:43:47;100356.44;;;11.98;97.33
31538;BME280;18147;51.952;6.146;2022-11-15T13:46:21;100364.69;;;11.95;99.76
31538;BME280;18147;51.952;6.146;2022-11-15T13:48:53;100358.63;;;11.92;99.94
31538;BME280;18147;51.952;6.146;2022-11-15T13:51:21;100359.72;;;11.90;100.00
31538;BME280;18147;51.952;6.146;2022-11-15T13:53:59;100351.94;;;11.87;100.00
31538;BME280;18147;51.952;6.146;2022-11-15T13:56:27;100349.25;;;11.87;99.73
31538;BME280;18147;51.952;6.146;2022-11-15T13:58:54;100349.47;;;11.84;99.80
31538;BME280;18147;51.952;6.146;2022-11-15T14:01:21;100346.41;;;11.77;99.30
31538;BME280;18147;51.952;6.146;2022-11-15T14:03:53;100334.63;;;11.80;98.95
31538;BME280;18147;51.952;6.146;2022-11-15T14:06:22;100337.31;;;11.80;96.85
31538;BME280;18147;51.952;6.146;2022-11-15T14:11:32;100338.59;;;11.63;97.28
31538;BME280;18147;51.952;6.146;2022-11-15T14:16:35;100333.50;;;11.71;94.33
31538;BME280;18147;51.952;6.146;2022-11-15T14:19:02;100314.06;;;11.69;94.65
31538;BME280;18147;51.952;6.146;2022-11-15T14:21:28;100317.34;;;11.61;96.80
31538;BME280;18147;51.952;6.146;2022-11-15T14:24:16;100315.00;;;11.57;97.01
31538;BME280;18147;51.952;6.146;2022-11-15T14:26:42;100314.16;;;11.56;97.02
31538;BME280;18147;51.952;6.146;2022-11-15T14:29:26;100315.16;;;11.55;97.09
31538;BME280;18147;51.952;6.146;2022-11-15T14:31:54;100307.47;;;11.51;97.96
31538;BME280;18147;51.952;6.146;2022-11-15T14:34:32;100308.28;;;11.40;99.71
31538;BME280;18147;51.952;6.146;2022-11-15T14:36:57;100290.91;;;11.34;100.00
31538;BME280;18147;51.952;6.146;2022-11-15T14:39:23;100298.53;;;11.28;100.00
31538;BME280;18147;51.952;6.146;2022-11-15T14:41:50;100289.66;;;11.27;100.00
31538;BME280;18147;51.952;6.146;2022-11-15T14:44:15;100292.13;;;11.30;99.91
31538;BME280;18147;51.952;6.146;2022-11-15T14:46:43;100280.94;;;11.25;100.00
31538;BME280;18147;51.952;6.146;2022-11-15T14:49:09;100281.88;;;11.24;100.00
31538;BME280;18147;51.952;6.146;2022-11-15T14:51:35;100278.78;;;11.30;99.64
31538;BME280;18147;51.952;6.146;2022-11-15T14:54:00;100274.03;;;11.34;98.32
31538;BME280;18147;51.952;6.146;2022-11-15T14:56:26;100275.25;;;11.30;99.84
31538;BME280;18147;51.952;6.146;2022-11-15T14:58:51;100265.19;;;11.33;98.54
31538;BME280;18147;51.952;6.146;2022-11-15T15:01:21;100256.19;;;11.34;98.02
31538;BME280;18147;51.952;6.146;2022-11-15T15:03:47;100258.41;;;11.40;96.15
31538;BME280;18147;51.952;6.146;2022-11-15T15:06:12;100255.00;;;11.38;96.41
31538;BME280;18147;51.952;6.146;2022-11-15T15:08:39;100250.25;;;11.31;97.40
31538;BME280;18147;51.952;6.146;2022-11-15T15:11:14;100247.84;;;11.39;95.80
31538;BME280;18147;51.952;6.146;2022-11-15T15:13:40;100239.59;;;11.31;98.05
31538;BME280;18147;51.952;6.146;2022-11-15T15:16:06;100232.66;;;11.39;95.44
31538;BME280;18147;51.952;6.146;2022-11-15T15:18:31;100227.09;;;11.43;95.17
31538;BME280;18147;51.952;6.146;2022-11-15T15:20:58;100221.91;;;11.41;95.20
31538;BME280;18147;51.952;6.146;2022-11-15T15:23:32;100209.97;;;11.34;96.85
31538;BME280;18147;51.952;6.146;2022-11-15T15:25:58;100215.09;;;11.37;96.97
31538;BME280;18147;51.952;6.146;2022-11-15T15:28:24;100201.38;;;11.41;95.97
31538;BME280;18147;51.952;6.146;2022-11-15T15:30:49;100200.41;;;11.43;95.91
31538;BME280;18147;51.952;6.146;2022-11-15T15:33:15;100195.78;;;11.33;97.76
31538;BME280;18147;51.952;6.146;2022-11-15T15:35:41;100192.28;;;11.44;96.63
31538;BME280;18147;51.952;6.146;2022-11-15T15:38:11;100179.06;;;11.43;97.34
31538;BME280;18147;51.952;6.146;2022-11-15T15:40:37;100181.09;;;11.39;98.61
31538;BME280;18147;51.952;6.146;2022-11-15T15:43:02;100179.06;;;11.43;98.53
31538;BME280;18147;51.952;6.146;2022-11-15T15:45:28;100170.47;;;11.50;97.81
31538;BME280;18147;51.952;6.146;2022-11-15T15:47:55;100162.81;;;11.57;97.21
31538;BME280;18147;51.952;6.146;2022-11-15T15:52:49;100167.16;;;11.47;99.29
31538;BME280;18147;51.952;6.146;2022-11-15T15:55:15;100162.31;;;11.52;99.09
31538;BME280;18147;51.952;6.146;2022-11-15T15:57:41;100160.72;;;11.49;99.84
31538;BME280;18147;51.952;6.146;2022-11-15T16:00:06;100161.59;;;11.50;100.00
31538;BME280;18147;51.952;6.146;2022-11-15T16:02:37;100152.75;;;11.60;98.67
31538;BME280;18147;51.952;6.146;2022-11-15T16:05:03;100148.00;;;11.53;100.00